createdAt,value
2023-03-31T00:01:32.030Z,99589.00
2023-03-31T00:03:58.817Z,99580.78
2023-03-31T00:06:25.644Z,99580.91
2023-03-31T00:08:56.177Z,99588.22
2023-03-31T00:13:58.817Z,99579.47
2023-03-31T00:16:25.343Z,99580.47
2023-03-31T00:18:51.973Z,99582.16
2023-03-31T00:21:19.998Z,99575.06
2023-03-31T00:23:46.463Z,99569.06
2023-03-31T00:26:14.180Z,99569.19
2023-03-31T00:28:40.565Z,99563.94
2023-03-31T00:31:07.043Z,99562.16
2023-03-31T00:33:33.477Z,99555.88
2023-03-31T00:36:00.014Z,99545.66
2023-03-31T00:38:26.462Z,99550.41
2023-03-31T00:40:53.940Z,99543.91
2023-03-31T00:43:34.583Z,99542.00
2023-03-31T00:46:07.298Z,99540.22
2023-03-31T00:48:36.945Z,99540.22
2023-03-31T00:51:06.678Z,99528.41
2023-03-31T00:53:36.379Z,99525.63
2023-03-31T00:56:09.323Z,99530.91
2023-03-31T00:58:38.462Z,99528.91
2023-03-31T01:01:05.083Z,99519.91
2023-03-31T01:03:32.411Z,99518.16
2023-03-31T01:06:02.680Z,99507.31
2023-03-31T01:08:29.489Z,99510.78
2023-03-31T01:11:02.243Z,99493.78
2023-03-31T01:13:34.556Z,99494.59
2023-03-31T01:16:03.248Z,99501.06
2023-03-31T01:18:32.571Z,99488.63
2023-03-31T01:21:24.277Z,99481.28
2023-03-31T01:24:28.022Z,99475.22
2023-03-31T01:27:12.961Z,99468.94
2023-03-31T01:30:21.068Z,99467.25
2023-03-31T01:33:14.583Z,99456.56
2023-03-31T01:36:02.476Z,99458.31
2023-03-31T01:38:50.892Z,99442.09
2023-03-31T01:41:35.247Z,99439.88
2023-03-31T01:44:10.126Z,99451.66
2023-03-31T01:46:41.782Z,99463.59
2023-03-31T01:49:16.384Z,99458.38
2023-03-31T01:51:49.785Z,99453.03
2023-03-31T01:54:23.383Z,99450.34
2023-03-31T01:56:57.004Z,99443.97
2023-03-31T01:59:28.110Z,99443.03
2023-03-31T02:01:59.470Z,99443.03
2023-03-31T02:04:31.021Z,99434.91
2023-03-31T02:07:03.467Z,99433.22
2023-03-31T02:09:34.061Z,99430.44
2023-03-31T02:12:05.711Z,99421.69
2023-03-31T02:14:35.307Z,99415.47
2023-03-31T02:17:02.306Z,99425.41
2023-03-31T02:19:33.527Z,99417.22
2023-03-31T02:22:02.637Z,99418.97
2023-03-31T02:24:30.551Z,99410.84
2023-03-31T02:27:05.056Z,99417.16
2023-03-31T02:29:32.444Z,99410.78
2023-03-31T02:32:05.894Z,99397.34
2023-03-31T02:34:34.803Z,99393.63
2023-03-31T02:37:01.835Z,99394.47
2023-03-31T02:39:34.074Z,99393.53
2023-03-31T02:42:03.037Z,99386.13
2023-03-31T02:44:29.453Z,99383.44
2023-03-31T02:46:55.926Z,99380.66
2023-03-31T02:49:22.436Z,99371.72
2023-03-31T02:52:15.762Z,99361.78
2023-03-31T02:55:10.187Z,99366.19
2023-03-31T02:58:00.183Z,99360.78
2023-03-31T03:00:40.579Z,99353.56
2023-03-31T03:03:20.419Z,99356.19
2023-03-31T03:05:53.502Z,99345.34
2023-03-31T03:09:07.633Z,99348.94
2023-03-31T03:11:45.118Z,99340.59
2023-03-31T03:14:21.140Z,99333.25
2023-03-31T03:16:53.783Z,99331.44
2023-03-31T03:19:22.446Z,99330.34
2023-03-31T03:21:49.464Z,99322.94
2023-03-31T03:24:16.822Z,99324.53
2023-03-31T03:26:43.476Z,99320.81
2023-03-31T03:29:10.040Z,99317.41
2023-03-31T03:31:37.769Z,99320.25
2023-03-31T03:34:04.355Z,99316.81
2023-03-31T03:36:30.792Z,99314.25
2023-03-31T03:38:57.297Z,99316.19
2023-03-31T03:41:24.069Z,99301.78
2023-03-31T03:43:50.462Z,99300.78
2023-03-31T03:46:16.889Z,99302.56
2023-03-31T03:48:44.708Z,99295.56
2023-03-31T03:51:11.135Z,99307.19
2023-03-31T03:53:37.607Z,99297.16
2023-03-31T03:56:04.551Z,99294.53
2023-03-31T03:58:31.170Z,99289.13
2023-03-31T04:00:57.648Z,99293.47
2023-03-31T04:03:24.179Z,99286.16
2023-03-31T04:05:52.000Z,99287.94
2023-03-31T04:08:19.043Z,99269.72
2023-03-31T04:10:46.772Z,99270.13
2023-03-31T04:13:13.137Z,99264.53
2023-03-31T04:15:39.574Z,99257.47
2023-03-31T04:18:08.087Z,99252.78
2023-03-31T04:20:34.596Z,99251.56
2023-03-31T04:23:02.303Z,99254.38
2023-03-31T04:25:28.743Z,99247.97
2023-03-31T04:27:55.297Z,99248.94
2023-03-31T04:30:23.140Z,99245.13
2023-03-31T04:32:50.758Z,99242.56
2023-03-31T04:35:17.509Z,99239.63
2023-03-31T04:37:43.958Z,99242.34
2023-03-31T04:40:12.082Z,99230.81
2023-03-31T04:42:38.444Z,99217.19
2023-03-31T04:45:05.504Z,99218.78
2023-03-31T04:47:31.919Z,99210.47
2023-03-31T04:49:58.378Z,99201.50
2023-03-31T04:52:24.878Z,99196.78
2023-03-31T04:54:51.400Z,99195.03
2023-03-31T04:57:19.413Z,99185.97
2023-03-31T04:59:45.846Z,99182.47
2023-03-31T05:02:12.549Z,99177.84
2023-03-31T05:04:39.023Z,99174.44
2023-03-31T05:07:05.543Z,99170.75
2023-03-31T05:09:33.496Z,99157.13
2023-03-31T05:12:03.052Z,99156.09
2023-03-31T05:14:30.803Z,99152.59
2023-03-31T05:16:57.314Z,99141.69
2023-03-31T05:19:23.879Z,99140.66
2023-03-31T05:21:50.366Z,99135.22
2023-03-31T05:24:16.839Z,99135.41
2023-03-31T05:26:43.280Z,99131.91
2023-03-31T05:29:09.682Z,99128.31
2023-03-31T05:31:37.435Z,99114.88
2023-03-31T05:34:03.841Z,99112.97
2023-03-31T05:36:30.251Z,99103.72
2023-03-31T05:38:56.706Z,99102.50
2023-03-31T05:41:23.193Z,99094.13
2023-03-31T05:43:49.626Z,99091.84
2023-03-31T05:46:16.121Z,99092.31
2023-03-31T05:48:43.914Z,99088.94
2023-03-31T05:51:10.647Z,99081.34
2023-03-31T05:53:37.079Z,99071.66
2023-03-31T05:56:06.358Z,99067.56
2023-03-31T05:58:34.140Z,99068.09
2023-03-31T06:01:02.504Z,99063.81
2023-03-31T06:03:29.060Z,99066.00
2023-03-31T06:05:56.875Z,99062.91
2023-03-31T06:08:23.311Z,99066.22
2023-03-31T06:10:49.676Z,99067.28
2023-03-31T06:13:16.402Z,99062.81
2023-03-31T06:15:42.950Z,99057.84
2023-03-31T06:18:09.484Z,99049.97
2023-03-31T06:20:36.028Z,99053.81
2023-03-31T06:23:03.874Z,99066.69
2023-03-31T06:25:37.143Z,99066.69
2023-03-31T06:28:10.349Z,99076.97
2023-03-31T06:30:36.794Z,99066.94
2023-03-31T06:33:03.438Z,99061.75
2023-03-31T06:35:30.041Z,99059.25
2023-03-31T06:37:56.413Z,99066.25
2023-03-31T06:40:25.204Z,99063.63
2023-03-31T06:42:51.748Z,99059.78
2023-03-31T06:45:18.337Z,99048.66
2023-03-31T06:47:44.876Z,99042.97
2023-03-31T06:50:11.320Z,99040.97
2023-03-31T06:52:40.725Z,99046.91
2023-03-31T06:55:09.466Z,99038.44
2023-03-31T06:57:39.765Z,99026.00
2023-03-31T07:00:09.967Z,99031.53
2023-03-31T07:02:36.332Z,99022.09
2023-03-31T07:05:03.216Z,99012.53
2023-03-31T07:07:31.395Z,99007.72
2023-03-31T07:09:58.099Z,99007.97
2023-03-31T07:12:24.611Z,99003.34
2023-03-31T07:14:52.341Z,99002.38
2023-03-31T07:17:18.783Z,98988.03
2023-03-31T07:19:45.220Z,98996.53
2023-03-31T07:22:11.609Z,98985.19
2023-03-31T07:24:38.042Z,98985.03
2023-03-31T07:27:04.535Z,98985.59
2023-03-31T07:29:30.958Z,98976.22
2023-03-31T07:31:58.746Z,98983.19
2023-03-31T07:34:25.287Z,98987.75
2023-03-31T07:36:55.505Z,98990.19
2023-03-31T07:39:22.187Z,98987.59
2023-03-31T07:41:48.655Z,98994.28
2023-03-31T07:44:15.065Z,99002.81
2023-03-31T07:46:41.736Z,98990.22
2023-03-31T07:49:09.680Z,98994.50
2023-03-31T07:51:36.176Z,99001.69
2023-03-31T07:54:02.576Z,99004.28
2023-03-31T07:56:28.976Z,99004.28
2023-03-31T07:58:57.523Z,98993.53
2023-03-31T08:01:25.435Z,98995.31
2023-03-31T08:03:52.320Z,98978.56
2023-03-31T08:06:22.388Z,98977.19
2023-03-31T08:08:50.187Z,98984.50
2023-03-31T08:11:16.873Z,98975.00
2023-03-31T08:13:43.308Z,98980.72
2023-03-31T08:16:10.304Z,98960.53
2023-03-31T08:18:37.019Z,98964.28
2023-03-31T08:21:03.799Z,98944.16
2023-03-31T08:23:31.699Z,98941.81
2023-03-31T08:26:08.397Z,98930.31
2023-03-31T08:28:35.151Z,98936.22
2023-03-31T08:31:03.834Z,98933.06
2023-03-31T08:33:32.346Z,98927.50
2023-03-31T08:36:02.386Z,98928.69
2023-03-31T08:38:28.883Z,98929.31
2023-03-31T08:41:01.315Z,98937.25
2023-03-31T08:43:33.116Z,98926.94
2023-03-31T08:46:01.691Z,98924.13
2023-03-31T08:48:30.564Z,98931.16
2023-03-31T08:51:02.960Z,98924.69
2023-03-31T08:53:32.856Z,98922.19
2023-03-31T08:56:00.649Z,98919.97
2023-03-31T08:58:39.712Z,98904.34
2023-03-31T09:01:16.542Z,98908.22
2023-03-31T09:03:51.105Z,98903.13
2023-03-31T09:06:24.777Z,98897.59
2023-03-31T09:08:54.827Z,98886.72
2023-03-31T09:11:32.932Z,98889.06
2023-03-31T09:14:24.918Z,98883.53
2023-03-31T09:16:58.456Z,98890.59
2023-03-31T09:19:35.351Z,98879.75
2023-03-31T09:22:04.499Z,98880.31
2023-03-31T09:24:36.567Z,98880.31
2023-03-31T09:27:08.364Z,98874.31
2023-03-31T09:29:43.103Z,98874.13
2023-03-31T09:32:15.789Z,98860.09
2023-03-31T09:34:44.425Z,98854.75
2023-03-31T09:37:11.618Z,98853.41
2023-03-31T09:39:38.200Z,98859.97
2023-03-31T09:42:12.272Z,98853.50
2023-03-31T09:44:40.084Z,98842.94
2023-03-31T09:47:12.102Z,98835.09
2023-03-31T09:49:39.460Z,98825.22
2023-03-31T09:54:44.497Z,98833.03
2023-03-31T09:57:24.453Z,98819.47
2023-03-31T09:59:51.954Z,98823.56
2023-03-31T10:02:36.076Z,98816.69
2023-03-31T10:05:04.192Z,98816.81
2023-03-31T10:07:30.999Z,98811.75
2023-03-31T10:09:57.578Z,98804.97
2023-03-31T10:12:28.255Z,98803.25
2023-03-31T10:15:03.532Z,98804.50
2023-03-31T10:17:32.546Z,98803.81
2023-03-31T10:20:19.115Z,98795.31
2023-03-31T10:22:45.969Z,98806.72
2023-03-31T10:25:17.237Z,98794.97
2023-03-31T10:27:48.133Z,98791.03
2023-03-31T10:30:20.909Z,98784.22
2023-03-31T10:32:49.956Z,98776.19
2023-03-31T10:35:26.280Z,98774.94
2023-03-31T10:37:56.716Z,98769.44
2023-03-31T10:40:25.876Z,98762.16
2023-03-31T10:43:02.206Z,98753.19
2023-03-31T10:45:37.259Z,98752.50
2023-03-31T10:48:06.993Z,98743.78
2023-03-31T10:50:37.803Z,98739.50
2023-03-31T10:53:06.152Z,98736.91
2023-03-31T10:55:42.258Z,98725.19
2023-03-31T10:58:31.552Z,98737.50
2023-03-31T11:01:11.253Z,98734.75
2023-03-31T11:03:55.213Z,98725.91
2023-03-31T11:06:28.128Z,98719.91
2023-03-31T11:09:09.698Z,98728.63
2023-03-31T11:11:56.407Z,98735.78
2023-03-31T11:14:33.656Z,98723.41
2023-03-31T11:17:05.380Z,98720.97
2023-03-31T11:19:42.579Z,98716.44
2023-03-31T11:22:16.925Z,98717.09
2023-03-31T11:25:05.957Z,98714.28
2023-03-31T11:27:48.598Z,98715.06
2023-03-31T11:30:21.910Z,98718.56
2023-03-31T11:33:00.990Z,98711.00
2023-03-31T11:35:42.359Z,98713.50
2023-03-31T11:38:24.058Z,98700.84
2023-03-31T11:40:57.547Z,98709.09
2023-03-31T11:43:30.238Z,98700.97
2023-03-31T11:46:01.967Z,98702.78
2023-03-31T11:48:39.006Z,98698.41
2023-03-31T11:51:16.988Z,98691.09
2023-03-31T11:53:45.132Z,98696.25
2023-03-31T11:56:12.900Z,98697.66
2023-03-31T11:58:45.359Z,98700.09
2023-03-31T12:01:23.220Z,98691.94
2023-03-31T12:03:57.149Z,98685.63
2023-03-31T12:06:28.154Z,98687.56
2023-03-31T12:09:09.536Z,98669.19
2023-03-31T12:11:43.083Z,98663.41
2023-03-31T12:14:21.812Z,98659.16
2023-03-31T12:16:52.805Z,98642.53
2023-03-31T12:19:24.425Z,98641.56
2023-03-31T12:21:56.849Z,98642.94
2023-03-31T12:24:23.246Z,98636.19
2023-03-31T12:26:58.502Z,98646.47
2023-03-31T12:29:30.542Z,98637.56
2023-03-31T12:32:01.085Z,98635.63
2023-03-31T12:34:30.062Z,98641.03
2023-03-31T12:37:13.315Z,98638.03
2023-03-31T12:39:52.624Z,98630.97
2023-03-31T12:42:39.714Z,98627.50
2023-03-31T12:45:17.966Z,98624.28
2023-03-31T12:48:08.091Z,98614.50
2023-03-31T12:50:51.409Z,98614.28
2023-03-31T12:53:28.606Z,98617.66
2023-03-31T12:55:57.116Z,98612.09
2023-03-31T12:58:45.780Z,98604.41
2023-03-31T13:01:15.210Z,98594.47
2023-03-31T13:03:49.420Z,98589.75
2023-03-31T13:06:53.952Z,98598.44
2023-03-31T13:09:40.387Z,98600.25
2023-03-31T13:12:08.066Z,98588.50
2023-03-31T13:14:38.041Z,98587.63
2023-03-31T13:17:15.681Z,98588.28
2023-03-31T13:19:45.971Z,98585.88
2023-03-31T13:22:32.755Z,98576.97
2023-03-31T13:25:37.211Z,98580.00
2023-03-31T13:28:26.357Z,98584.78
2023-03-31T13:30:55.668Z,98585.44
2023-03-31T13:33:30.894Z,98586.31
2023-03-31T13:36:25.273Z,98583.28
2023-03-31T13:39:05.933Z,98580.44
2023-03-31T13:41:44.447Z,98571.03
2023-03-31T13:44:48.117Z,98569.31
2023-03-31T13:47:34.064Z,98565.22
2023-03-31T13:50:17.281Z,98572.84
2023-03-31T13:52:53.186Z,98559.94
2023-03-31T13:55:34.702Z,98557.59
2023-03-31T13:58:33.602Z,98545.13
2023-03-31T14:01:40.008Z,98547.31
2023-03-31T14:04:27.367Z,98529.63
2023-03-31T14:06:59.074Z,98535.81
2023-03-31T14:09:32.323Z,98534.78
2023-03-31T14:11:59.391Z,98531.22
2023-03-31T14:14:25.839Z,98532.81
2023-03-31T14:16:56.452Z,98523.84
2023-03-31T14:19:44.701Z,98521.09
2023-03-31T14:22:20.007Z,98516.78
2023-03-31T14:24:54.059Z,98518.56
2023-03-31T14:27:35.655Z,98521.16
2023-03-31T14:30:10.672Z,98517.16
2023-03-31T14:32:44.373Z,98528.53
2023-03-31T14:35:28.326Z,98540.00
2023-03-31T14:38:09.177Z,98603.38
2023-03-31T14:40:47.254Z,98581.78
2023-03-31T14:43:20.019Z,98585.72
2023-03-31T14:45:46.436Z,98575.34
2023-03-31T14:48:14.596Z,98567.31
2023-03-31T14:50:44.267Z,98567.88
2023-03-31T14:53:14.651Z,98566.22
2023-03-31T14:55:57.464Z,98557.63
2023-03-31T14:58:29.707Z,98551.84
2023-03-31T15:00:56.336Z,98552.41
2023-03-31T15:03:25.364Z,98547.22
2023-03-31T15:05:57.378Z,98538.50
2023-03-31T15:08:24.662Z,98529.44
2023-03-31T15:11:02.417Z,98533.56
2023-03-31T15:13:42.529Z,98527.88
2023-03-31T15:16:20.659Z,98524.19
2023-03-31T15:18:47.402Z,98526.63
2023-03-31T15:21:20.696Z,98541.47
2023-03-31T15:23:47.393Z,98540.44
2023-03-31T15:26:24.932Z,98528.69
2023-03-31T15:28:59.904Z,98524.78
2023-03-31T15:31:26.751Z,98523.16
2023-03-31T15:33:53.966Z,98524.31
2023-03-31T15:36:21.365Z,98521.22
2023-03-31T15:38:56.016Z,98523.75
2023-03-31T15:44:02.855Z,98517.09
2023-03-31T15:46:50.138Z,98522.03
2023-03-31T15:49:20.859Z,98527.84
2023-03-31T15:51:48.223Z,98529.97
2023-03-31T15:54:30.979Z,98512.19
2023-03-31T15:56:59.674Z,98528.03
2023-03-31T15:59:34.401Z,98528.63
2023-03-31T16:02:13.137Z,98533.28
2023-03-31T16:04:39.749Z,98534.03
2023-03-31T16:07:08.734Z,98531.91
2023-03-31T16:09:44.309Z,98527.88
2023-03-31T16:12:15.833Z,98526.41
2023-03-31T16:14:47.757Z,98523.41
2023-03-31T16:17:26.023Z,98526.63
2023-03-31T16:19:59.585Z,98534.63
2023-03-31T16:22:35.214Z,98532.63
2023-03-31T16:25:01.895Z,98541.03
2023-03-31T16:27:28.573Z,98543.84
2023-03-31T16:30:07.118Z,98539.00
2023-03-31T16:32:35.139Z,98557.06
2023-03-31T16:35:03.716Z,98551.47
2023-03-31T16:37:30.377Z,98548.00
2023-03-31T16:39:56.988Z,98547.00
2023-03-31T16:42:23.925Z,98548.00
2023-03-31T16:45:09.589Z,98555.34
2023-03-31T16:47:38.148Z,98562.84
2023-03-31T16:50:05.703Z,98558.44
2023-03-31T16:52:32.145Z,98557.44
2023-03-31T16:54:58.850Z,98557.75
2023-03-31T16:57:25.398Z,98556.09
2023-03-31T16:59:52.257Z,98555.22
2023-03-31T17:02:18.636Z,98549.63
2023-03-31T17:04:46.471Z,98546.81
2023-03-31T17:07:12.854Z,98537.94
2023-03-31T17:09:39.246Z,98543.72
2023-03-31T17:12:05.784Z,98543.06
2023-03-31T17:14:32.161Z,98538.69
2023-03-31T17:16:58.606Z,98539.06
2023-03-31T17:19:25.133Z,98539.28
2023-03-31T17:21:53.004Z,98544.69
2023-03-31T17:24:19.447Z,98542.06
2023-03-31T17:26:45.915Z,98544.88
2023-03-31T17:29:14.561Z,98540.50
2023-03-31T17:31:41.862Z,98550.28
2023-03-31T17:34:08.354Z,98547.56
2023-03-31T17:36:34.901Z,98548.56
2023-03-31T17:39:03.335Z,98556.66
2023-03-31T17:41:29.772Z,98552.97
2023-03-31T17:43:56.218Z,98563.13
2023-03-31T17:46:23.297Z,98565.16
2023-03-31T17:48:49.794Z,98566.09
2023-03-31T17:51:18.111Z,98564.28
2023-03-31T17:53:46.678Z,98570.38
2023-03-31T17:56:16.526Z,98572.78
2023-03-31T17:58:43.260Z,98576.28
2023-03-31T18:01:10.812Z,98585.84
2023-03-31T18:03:37.345Z,98587.41
2023-03-31T18:06:05.115Z,98585.38
2023-03-31T18:08:31.697Z,98581.78
2023-03-31T18:10:58.185Z,98585.69
2023-03-31T18:13:28.141Z,98590.00
2023-03-31T18:15:54.741Z,98591.09
2023-03-31T18:18:21.650Z,98589.31
2023-03-31T18:20:48.101Z,98601.03
2023-03-31T18:23:14.609Z,98598.22
2023-03-31T18:25:42.204Z,98607.31
2023-03-31T18:28:08.758Z,98600.16
2023-03-31T18:30:36.733Z,98602.19
2023-03-31T18:33:03.612Z,98605.75
2023-03-31T18:35:30.217Z,98602.19
2023-03-31T18:37:56.835Z,98607.50
2023-03-31T18:40:23.535Z,98613.78
2023-03-31T18:42:50.013Z,98609.63
2023-03-31T18:45:17.466Z,98610.66
2023-03-31T18:47:45.473Z,98606.31
2023-03-31T18:50:12.104Z,98607.38
2023-03-31T18:52:38.766Z,98611.91
2023-03-31T18:55:06.247Z,98608.44
2023-03-31T18:57:32.998Z,98608.59
2023-03-31T19:00:02.023Z,98608.59
2023-03-31T19:02:28.623Z,98607.03
2023-03-31T19:04:56.534Z,98606.88
2023-03-31T19:07:25.775Z,98610.53
2023-03-31T19:09:52.230Z,98609.75
2023-03-31T19:12:18.669Z,98616.13
2023-03-31T19:14:45.140Z,98610.91
2023-03-31T19:17:13.602Z,98615.34
2023-03-31T19:19:40.016Z,98613.59
2023-03-31T19:22:13.500Z,98621.72
2023-03-31T19:24:39.999Z,98611.88
2023-03-31T19:27:06.558Z,98611.88
2023-03-31T19:29:34.482Z,98616.50
2023-03-31T19:32:01.796Z,98611.78
2023-03-31T19:34:31.445Z,98613.53
2023-03-31T19:36:57.967Z,98605.69
2023-03-31T19:39:33.171Z,98611.69
2023-03-31T19:41:59.662Z,98613.78
2023-03-31T19:44:29.194Z,98605.41
2023-03-31T19:46:55.631Z,98603.94
2023-03-31T19:49:24.910Z,98607.59
2023-03-31T19:51:53.678Z,98606.06
2023-03-31T19:54:20.904Z,98605.09
2023-03-31T19:56:48.973Z,98607.59
2023-03-31T19:59:15.626Z,98602.41
2023-03-31T20:01:45.298Z,98602.41
2023-03-31T20:04:12.029Z,98607.59
2023-03-31T20:06:39.936Z,98600.47
2023-03-31T20:09:06.396Z,98599.59
2023-03-31T20:11:33.000Z,98604.91
2023-03-31T20:14:04.103Z,98603.25
2023-03-31T20:16:31.531Z,98607.81
2023-03-31T20:18:59.937Z,98607.88
2023-03-31T20:21:28.078Z,98611.66
2023-03-31T20:23:55.102Z,98618.78
2023-03-31T20:26:26.470Z,98597.78
2023-03-31T20:28:55.392Z,98606.06
2023-03-31T20:31:26.450Z,98608.16
2023-03-31T20:33:54.036Z,98603.97
2023-03-31T20:36:22.834Z,98611.31
2023-03-31T20:38:50.699Z,98616.03
2023-03-31T20:41:18.148Z,98616.22
2023-03-31T20:43:44.694Z,98609.16
2023-03-31T20:46:11.420Z,98600.16
2023-03-31T20:48:40.864Z,98608.28
2023-03-31T20:51:09.023Z,98615.53
2023-03-31T20:53:36.503Z,98611.06
2023-03-31T20:56:03.213Z,98607.50
2023-03-31T20:58:41.111Z,98614.56
2023-03-31T21:01:09.347Z,98619.03
2023-03-31T21:03:35.960Z,98613.53
2023-03-31T21:06:05.821Z,98618.81
2023-03-31T21:08:32.745Z,98612.75
2023-03-31T21:10:59.218Z,98604.53
2023-03-31T21:13:27.058Z,98611.75
2023-03-31T21:15:53.848Z,98610.97
2023-03-31T21:18:20.421Z,98615.59
2023-03-31T21:20:50.354Z,98615.69
2023-03-31T21:23:18.319Z,98620.22
2023-03-31T21:25:46.645Z,98618.31
2023-03-31T21:28:13.030Z,98621.88
2023-03-31T21:30:39.458Z,98624.50
2023-03-31T21:33:05.897Z,98628.97
2023-03-31T21:35:32.389Z,98634.38
2023-03-31T21:37:59.000Z,98620.94
2023-03-31T21:40:26.714Z,98625.28
2023-03-31T21:42:53.127Z,98621.78
2023-03-31T21:45:19.598Z,98626.16
2023-03-31T21:47:46.068Z,98618.94
2023-03-31T21:50:12.543Z,98629.75
2023-03-31T21:52:38.940Z,98620.06
2023-03-31T21:55:05.724Z,98628.97
2023-03-31T21:57:33.618Z,98628.06
2023-03-31T22:00:00.117Z,98620.06
2023-03-31T22:02:26.634Z,98625.47
2023-03-31T22:04:53.090Z,98626.34
2023-03-31T22:07:19.593Z,98621.00
2023-03-31T22:09:51.468Z,98622.00
2023-03-31T22:12:17.874Z,98630.88
2023-03-31T22:14:45.607Z,98629.13
2023-03-31T22:17:12.047Z,98629.13
2023-03-31T22:19:38.511Z,98631.75
2023-03-31T22:22:04.918Z,98633.47
2023-03-31T22:24:31.362Z,98636.28
2023-03-31T22:26:57.991Z,98641.69
2023-03-31T22:29:24.850Z,98634.72
2023-03-31T22:31:53.084Z,98634.88
2023-03-31T22:34:19.647Z,98638.31
2023-03-31T22:36:46.616Z,98644.56
2023-03-31T22:39:13.098Z,98635.59
2023-03-31T22:41:39.583Z,98634.72
2023-03-31T22:44:07.878Z,98634.09
2023-03-31T22:46:34.781Z,98640.47
2023-03-31T22:49:02.891Z,98643.28
2023-03-31T22:51:29.825Z,98640.66
2023-03-31T22:53:56.701Z,98647.03
2023-03-31T22:56:24.355Z,98646.44
2023-03-31T22:58:52.106Z,98641.19
2023-03-31T23:01:20.590Z,98638.38
2023-03-31T23:03:47.557Z,98637.53
2023-03-31T23:06:16.458Z,98636.56
2023-03-31T23:08:43.284Z,98641.03
2023-03-31T23:11:12.241Z,98639.25
2023-03-31T23:13:39.259Z,98641.97
2023-03-31T23:16:07.001Z,98642.06
2023-03-31T23:18:33.822Z,98639.47
2023-03-31T23:21:03.030Z,98644.84
2023-03-31T23:23:30.871Z,98641.19
2023-03-31T23:26:00.157Z,98642.16
2023-03-31T23:28:26.596Z,98639.47
2023-03-31T23:30:53.102Z,98636.75
2023-03-31T23:33:19.542Z,98641.19
2023-03-31T23:35:45.900Z,98639.47
2023-03-31T23:38:14.234Z,98631.25
2023-03-31T23:40:41.980Z,98630.47
2023-03-31T23:43:08.513Z,98635.78
2023-03-31T23:45:34.941Z,98629.59
2023-03-31T23:48:01.418Z,98632.19
2023-03-31T23:50:27.873Z,98635.78
2023-03-31T23:52:54.298Z,98634.06
2023-03-31T23:55:20.901Z,98632.28
2023-03-31T23:57:48.700Z,98636.81
